VOE1YH LFBO-LICJ
Flight info
| Callsign | VOE1YH |
|---|---|
| Flight time | N/A |
| Altitude | 39000 |
| Route | OKSER DCT APRUR DCT NISEK DCT BADUK DCT LAVRU |
| Aircraft | A319/M-SDE3FGHIRWY/LB1 |
Departure
| Time | 2026-05-07 17:59 |
|---|---|
| Airport | Toulouse-Blagnac Airport (LFBO) |
Arrival
| Time | N/A |
|---|---|
| Airport | Falcone–Borsellino Airport (LICJ) |
| Time | Latitude | Longitude | Altitude | Speed | Heading |
|---|---|---|---|---|---|
| 2026-05-07 17:25 | 43.63058 | 1.37212 | 494 ft | 0 kts | 83° |
| 2026-05-07 17:50 | 43.63056 | 1.37194 | 484 ft | 4 kts | 84° |
| 2026-05-07 17:51 | 43.63053 | 1.37162 | 487 ft | 3 kts | 81° |
| 2026-05-07 17:51 | 43.63046 | 1.37130 | 483 ft | 4 kts | 40° |
| 2026-05-07 17:51 | 43.63026 | 1.37123 | 485 ft | 4 kts | 336° |
| 2026-05-07 17:51 | 43.63005 | 1.37140 | 486 ft | 4 kts | 312° |
| 2026-05-07 17:52 | 43.62999 | 1.37148 | 487 ft | 0 kts | 322° |
| 2026-05-07 17:54 | 43.63000 | 1.37147 | 494 ft | 1 kts | 322° |
| 2026-05-07 17:54 | 43.63018 | 1.37126 | 483 ft | 5 kts | 314° |
| 2026-05-07 17:54 | 43.63012 | 1.37064 | 487 ft | 9 kts | 236° |
| 2026-05-07 17:55 | 43.62965 | 1.36982 | 487 ft | 13 kts | 233° |
| 2026-05-07 17:55 | 43.62892 | 1.36953 | 490 ft | 13 kts | 150° |
| 2026-05-07 17:55 | 43.62819 | 1.37028 | 488 ft | 14 kts | 143° |
| 2026-05-07 17:55 | 43.62740 | 1.37110 | 494 ft | 15 kts | 143° |
| 2026-05-07 17:56 | 43.62655 | 1.37199 | 494 ft | 16 kts | 143° |
| 2026-05-07 17:56 | 43.62564 | 1.37292 | 494 ft | 17 kts | 143° |
| 2026-05-07 17:56 | 43.62470 | 1.37391 | 492 ft | 17 kts | 142° |
| 2026-05-07 17:56 | 43.62371 | 1.37495 | 494 ft | 18 kts | 143° |
| 2026-05-07 17:57 | 43.62269 | 1.37600 | 487 ft | 19 kts | 143° |
| 2026-05-07 17:57 | 43.62195 | 1.37668 | 492 ft | 19 kts | 160° |
| 2026-05-07 17:57 | 43.62078 | 1.37524 | 490 ft | 15 kts | 233° |
| 2026-05-07 17:57 | 43.62097 | 1.37470 | 491 ft | 5 kts | 323° |
| 2026-05-07 17:58 | 43.62145 | 1.37420 | 490 ft | 25 kts | 323° |
| 2026-05-07 17:58 | 43.62520 | 1.37028 | 494 ft | 106 kts | 323° |
| 2026-05-07 17:58 | 43.63284 | 1.36235 | 512 ft | 164 kts | 323° |
| 2026-05-07 17:58 | 43.64211 | 1.35256 | 1059 ft | 170 kts | 323° |
| 2026-05-07 17:59 | 43.65139 | 1.34251 | 1816 ft | 169 kts | 322° |
| 2026-05-07 17:59 | 43.66061 | 1.33236 | 2487 ft | 175 kts | 323° |
| 2026-05-07 17:59 | 43.67073 | 1.32115 | 2904 ft | 198 kts | 322° |
| 2026-05-07 17:59 | 43.68203 | 1.30863 | 3295 ft | 224 kts | 322° |
| 2026-05-07 18:00 | 43.69677 | 1.29935 | 3779 ft | 248 kts | 355° |
| 2026-05-07 18:00 | 43.71392 | 1.30472 | 4455 ft | 263 kts | 33° |
| 2026-05-07 18:00 | 43.72570 | 1.32391 | 5415 ft | 269 kts | 67° |
| 2026-05-07 18:00 | 43.72859 | 1.34975 | 6391 ft | 279 kts | 90° |
| 2026-05-07 18:01 | 43.72694 | 1.37666 | 7123 ft | 283 kts | 97° |
| 2026-05-07 18:01 | 43.72427 | 1.40376 | 8108 ft | 287 kts | 98° |
| 2026-05-07 18:01 | 43.72152 | 1.43132 | 9081 ft | 291 kts | 99° |
| 2026-05-07 18:01 | 43.71922 | 1.45895 | 10038 ft | 295 kts | 94° |
| 2026-05-07 18:02 | 43.71989 | 1.51983 | 11072 ft | 333 kts | 87° |
| 2026-05-07 18:02 | 43.72148 | 1.55214 | 11890 ft | 340 kts | 86° |
| 2026-05-07 18:02 | 43.72309 | 1.58496 | 12743 ft | 345 kts | 87° |
| 2026-05-07 18:03 | 43.72452 | 1.61825 | 13577 ft | 349 kts | 88° |
| 2026-05-07 18:03 | 43.72573 | 1.65199 | 14332 ft | 354 kts | 89° |
| 2026-05-07 18:03 | 43.72595 | 1.68629 | 15078 ft | 358 kts | 92° |
| 2026-05-07 18:03 | 43.72517 | 1.72088 | 15812 ft | 362 kts | 94° |
| 2026-05-07 18:04 | 43.72391 | 1.75526 | 16541 ft | 366 kts | 94° |
| 2026-05-07 18:04 | 43.72252 | 1.79056 | 17282 ft | 370 kts | 94° |
| 2026-05-07 18:04 | 43.72118 | 1.82631 | 18001 ft | 374 kts | 94° |
| 2026-05-07 18:04 | 43.71991 | 1.86246 | 18665 ft | 378 kts | 94° |
| 2026-05-07 18:05 | 43.71874 | 1.89885 | 19303 ft | 382 kts | 94° |
| 2026-05-07 18:05 | 43.71764 | 1.93576 | 19956 ft | 385 kts | 94° |
| 2026-05-07 18:05 | 43.71661 | 1.97282 | 20609 ft | 388 kts | 94° |
| 2026-05-07 18:05 | 43.71449 | 2.00965 | 21250 ft | 390 kts | 101° |
| 2026-05-07 18:06 | 43.70785 | 2.04595 | 21871 ft | 391 kts | 112° |
| 2026-05-07 18:06 | 43.69678 | 2.08027 | 22503 ft | 392 kts | 120° |
| 2026-05-07 18:06 | 43.68436 | 2.11409 | 23144 ft | 396 kts | 120° |
| 2026-05-07 18:06 | 43.67185 | 2.14812 | 23745 ft | 399 kts | 120° |
| 2026-05-07 18:07 | 43.65922 | 2.18245 | 24252 ft | 402 kts | 120° |
| 2026-05-07 18:07 | 43.64652 | 2.21699 | 24756 ft | 406 kts | 120° |
| 2026-05-07 18:07 | 43.63367 | 2.25189 | 25229 ft | 409 kts | 120° |
| 2026-05-07 18:07 | 43.62071 | 2.28708 | 25712 ft | 413 kts | 121° |
| 2026-05-07 18:08 | 43.60762 | 2.32259 | 26128 ft | 417 kts | 121° |
| 2026-05-07 18:08 | 43.59457 | 2.35794 | 26565 ft | 421 kts | 121° |
| 2026-05-07 18:08 | 43.58119 | 2.39412 | 27014 ft | 425 kts | 121° |
| 2026-05-07 18:08 | 43.56774 | 2.43047 | 27455 ft | 428 kts | 122° |
| 2026-05-07 18:09 | 43.55413 | 2.46724 | 27891 ft | 432 kts | 122° |
| 2026-05-07 18:09 | 43.54039 | 2.50427 | 28333 ft | 436 kts | 122° |
| 2026-05-07 18:09 | 43.52654 | 2.54155 | 28752 ft | 439 kts | 122° |
| 2026-05-07 18:09 | 43.51255 | 2.57915 | 29183 ft | 442 kts | 122° |
| 2026-05-07 18:10 | 43.49863 | 2.61648 | 29599 ft | 446 kts | 122° |
| 2026-05-07 18:10 | 43.48441 | 2.65463 | 30016 ft | 449 kts | 123° |
| 2026-05-07 18:10 | 43.47006 | 2.69308 | 30323 ft | 453 kts | 123° |
| 2026-05-07 18:10 | 43.45556 | 2.73184 | 30624 ft | 457 kts | 123° |
| 2026-05-07 18:11 | 43.44099 | 2.77074 | 30988 ft | 459 kts | 123° |
| 2026-05-07 18:11 | 43.43124 | 2.79674 | 31225 ft | 461 kts | 123° |
| 2026-05-07 18:11 | 43.41152 | 2.84926 | 31713 ft | 463 kts | 124° |
| 2026-05-07 18:11 | 43.39688 | 2.88822 | 32069 ft | 465 kts | 124° |
| 2026-05-07 18:12 | 43.38202 | 2.92775 | 32423 ft | 467 kts | 124° |
| 2026-05-07 18:12 | 43.36712 | 2.96733 | 32886 ft | 465 kts | 125° |
| 2026-05-07 18:12 | 43.35227 | 3.00679 | 33408 ft | 463 kts | 125° |
| 2026-05-07 18:12 | 43.33754 | 3.04588 | 33912 ft | 461 kts | 126° |
| 2026-05-07 18:13 | 43.32276 | 3.08499 | 34297 ft | 461 kts | 126° |
| 2026-05-07 18:13 | 43.30790 | 3.12412 | 34610 ft | 462 kts | 126° |
| 2026-05-07 18:13 | 43.29300 | 3.16325 | 34948 ft | 463 kts | 125° |
| 2026-05-07 18:13 | 43.27811 | 3.20230 | 35277 ft | 463 kts | 125° |
| 2026-05-07 18:14 | 43.26316 | 3.24151 | 35595 ft | 463 kts | 125° |
| 2026-05-07 18:14 | 43.24845 | 3.28006 | 35916 ft | 463 kts | 124° |
| 2026-05-07 18:14 | 43.23348 | 3.31925 | 36223 ft | 464 kts | 124° |
| 2026-05-07 18:14 | 43.21850 | 3.35839 | 36528 ft | 464 kts | 124° |
| 2026-05-07 18:15 | 43.20352 | 3.39755 | 36814 ft | 464 kts | 123° |
| 2026-05-07 18:15 | 43.18854 | 3.43671 | 37097 ft | 464 kts | 123° |
| 2026-05-07 18:15 | 43.17349 | 3.47593 | 37374 ft | 464 kts | 123° |
| 2026-05-07 18:15 | 43.15844 | 3.51504 | 37650 ft | 465 kts | 123° |
| 2026-05-07 18:16 | 43.14356 | 3.55361 | 37914 ft | 465 kts | 123° |
| 2026-05-07 18:16 | 43.12843 | 3.59283 | 38178 ft | 465 kts | 123° |
| 2026-05-07 18:16 | 43.11333 | 3.63198 | 38435 ft | 466 kts | 122° |
| 2026-05-07 18:16 | 43.09819 | 3.67114 | 38664 ft | 466 kts | 122° |
| 2026-05-07 18:17 | 43.08301 | 3.71038 | 38857 ft | 466 kts | 122° |
| 2026-05-07 18:17 | 43.05249 | 3.78914 | 38974 ft | 473 kts | 122° |
| 2026-05-07 18:18 | 43.02129 | 3.86921 | 38978 ft | 481 kts | 123° |
| 2026-05-07 18:18 | 42.98987 | 3.94954 | 38975 ft | 483 kts | 123° |
| 2026-05-07 18:19 | 42.95827 | 4.03049 | 38971 ft | 483 kts | 123° |